sensor_id;sensor_type;location;lat;lon;timestamp;P1;durP1;ratioP1;P2;durP2;ratioP2
78744;SDS011;68064;53.100;8.824;2023-05-02T00:44:44;16.05;;;4.80;;
78744;SDS011;68064;53.100;8.824;2023-05-02T00:49:40;17.63;;;5.10;;
78744;SDS011;68064;53.100;8.824;2023-05-02T18:06:55;1.98;;;0.60;;
78744;SDS011;68064;53.100;8.824;2023-05-02T18:07:56;2.38;;;0.10;;
78744;SDS011;68064;53.100;8.824;2023-05-02T18:08:57;2.70;;;0.40;;
78744;SDS011;68064;53.100;8.824;2023-05-02T18:10:59;4.47;;;0.10;;
78744;SDS011;68064;53.100;8.824;2023-05-02T18:13:01;1.02;;;0.05;;
78744;SDS011;68064;53.100;8.824;2023-05-02T18:15:04;1.70;;;0.10;;
78744;SDS011;68064;53.100;8.824;2023-05-02T18:16:05;2.33;;;0.10;;
78744;SDS011;68064;53.100;8.824;2023-05-02T18:17:07;3.60;;;0.10;;
78744;SDS011;68064;53.100;8.824;2023-05-02T18:18:08;1.83;;;0.05;;
78744;SDS011;68064;53.100;8.824;2023-05-02T18:19:09;4.53;;;0.30;;
78744;SDS011;68064;53.100;8.824;2023-05-02T18:20:10;2.15;;;0.10;;
78744;SDS011;68064;53.100;8.824;2023-05-02T18:22:21;2.40;;;0.10;;
78744;SDS011;68064;53.100;8.824;2023-05-02T18:23:22;3.08;;;0.20;;
78744;SDS011;68064;53.100;8.824;2023-05-02T18:24:23;3.17;;;0.20;;
78744;SDS011;68064;53.100;8.824;2023-05-02T18:25:28;4.32;;;0.20;;
78744;SDS011;68064;53.100;8.824;2023-05-02T18:26:35;5.22;;;0.40;;
78744;SDS011;68064;53.100;8.824;2023-05-02T18:27:37;2.25;;;0.20;;
78744;SDS011;68064;53.100;8.824;2023-05-02T18:28:38;2.63;;;0.10;;
78744;SDS011;68064;53.100;8.824;2023-05-02T18:30:45;2.83;;;0.10;;
78744;SDS011;68064;53.100;8.824;2023-05-02T18:31:46;3.35;;;0.40;;
78744;SDS011;68064;53.100;8.824;2023-05-02T18:32:48;2.78;;;0.10;;
78744;SDS011;68064;53.100;8.824;2023-05-02T18:33:51;5.28;;;0.85;;
78744;SDS011;68064;53.100;8.824;2023-05-02T18:34:54;1.63;;;0.40;;
78744;SDS011;68064;53.100;8.824;2023-05-02T18:35:57;3.25;;;0.15;;
78744;SDS011;68064;53.100;8.824;2023-05-02T18:37:01;4.22;;;0.10;;
78744;SDS011;68064;53.100;8.824;2023-05-02T18:38:06;3.05;;;0.30;;
78744;SDS011;68064;53.100;8.824;2023-05-02T18:39:08;2.80;;;0.60;;
78744;SDS011;68064;53.100;8.824;2023-05-02T18:40:09;4.95;;;0.47;;
78744;SDS011;68064;53.100;8.824;2023-05-02T18:42:16;6.53;;;0.28;;
78744;SDS011;68064;53.100;8.824;2023-05-02T18:44:18;2.08;;;0.20;;
78744;SDS011;68064;53.100;8.824;2023-05-02T18:45:28;1.83;;;0.10;;
78744;SDS011;68064;53.100;8.824;2023-05-02T18:46:39;5.82;;;0.68;;
78744;SDS011;68064;53.100;8.824;2023-05-02T18:48:41;6.55;;;0.40;;
78744;SDS011;68064;53.100;8.824;2023-05-02T18:50:43;4.32;;;0.10;;
78744;SDS011;68064;53.100;8.824;2023-05-02T18:51:44;4.80;;;0.10;;
78744;SDS011;68064;53.100;8.824;2023-05-02T18:52:45;2.47;;;0.10;;
78744;SDS011;68064;53.100;8.824;2023-05-02T18:53:47;2.63;;;0.20;;
78744;SDS011;68064;53.100;8.824;2023-05-02T18:54:49;4.18;;;0.28;;
78744;SDS011;68064;53.100;8.824;2023-05-02T18:55:51;2.72;;;0.22;;
78744;SDS011;68064;53.100;8.824;2023-05-02T18:56:52;4.55;;;0.38;;
78744;SDS011;68064;53.100;8.824;2023-05-02T18:58:54;2.20;;;0.10;;
78744;SDS011;68064;53.100;8.824;2023-05-02T18:59:56;2.17;;;0.20;;
78744;SDS011;68064;53.100;8.824;2023-05-02T19:01:57;5.75;;;0.60;;
78744;SDS011;68064;53.100;8.824;2023-05-02T19:04:30;6.45;;;1.38;;
78744;SDS011;68064;53.100;8.824;2023-05-02T19:05:31;5.93;;;1.00;;
78744;SDS011;68064;53.100;8.824;2023-05-02T19:07:05;6.45;;;0.60;;
78744;SDS011;68064;53.100;8.824;2023-05-02T19:08:06;3.58;;;0.35;;
78744;SDS011;68064;53.100;8.824;2023-05-02T19:11:09;4.95;;;0.20;;
78744;SDS011;68064;53.100;8.824;2023-05-02T19:12:10;2.80;;;0.30;;
78744;SDS011;68064;53.100;8.824;2023-05-02T19:13:11;5.97;;;0.30;;
78744;SDS011;68064;53.100;8.824;2023-05-02T19:14:12;4.72;;;0.40;;
78744;SDS011;68064;53.100;8.824;2023-05-02T19:15:13;4.05;;;0.43;;
78744;SDS011;68064;53.100;8.824;2023-05-02T19:17:15;1.73;;;0.43;;
78744;SDS011;68064;53.100;8.824;2023-05-02T19:18:16;4.63;;;0.30;;
78744;SDS011;68064;53.100;8.824;2023-05-02T19:19:17;2.80;;;0.20;;
78744;SDS011;68064;53.100;8.824;2023-05-02T19:20:18;3.17;;;0.17;;
78744;SDS011;68064;53.100;8.824;2023-05-02T19:21:19;2.88;;;0.20;;
78744;SDS011;68064;53.100;8.824;2023-05-02T19:22:20;2.25;;;0.20;;
78744;SDS011;68064;53.100;8.824;2023-05-02T19:23:21;3.63;;;0.40;;
78744;SDS011;68064;53.100;8.824;2023-05-02T19:24:22;3.17;;;0.25;;
78744;SDS011;68064;53.100;8.824;2023-05-02T19:25:24;1.73;;;0.15;;
78744;SDS011;68064;53.100;8.824;2023-05-02T19:26:26;4.57;;;0.20;;
78744;SDS011;68064;53.100;8.824;2023-05-02T19:27:27;4.00;;;0.20;;
78744;SDS011;68064;53.100;8.824;2023-05-02T19:28:29;2.22;;;0.20;;
78744;SDS011;68064;53.100;8.824;2023-05-02T19:29:30;2.65;;;0.20;;
78744;SDS011;68064;53.100;8.824;2023-05-02T19:30:31;4.35;;;0.20;;
78744;SDS011;68064;53.100;8.824;2023-05-02T19:31:32;2.78;;;0.10;;
78744;SDS011;68064;53.100;8.824;2023-05-02T19:32:33;1.80;;;0.15;;
78744;SDS011;68064;53.100;8.824;2023-05-02T19:33:34;4.18;;;0.20;;
78744;SDS011;68064;53.100;8.824;2023-05-02T19:35:36;3.40;;;0.30;;
78744;SDS011;68064;53.100;8.824;2023-05-02T19:36:37;3.03;;;0.30;;
78744;SDS011;68064;53.100;8.824;2023-05-02T19:37:38;2.58;;;0.30;;
78744;SDS011;68064;53.100;8.824;2023-05-02T19:38:39;3.10;;;0.15;;
78744;SDS011;68064;53.100;8.824;2023-05-02T19:39:40;4.57;;;0.40;;
78744;SDS011;68064;53.100;8.824;2023-05-02T19:40:41;3.08;;;0.30;;
78744;SDS011;68064;53.100;8.824;2023-05-02T19:41:44;3.00;;;0.35;;
78744;SDS011;68064;53.100;8.824;2023-05-02T19:42:45;3.38;;;0.20;;
78744;SDS011;68064;53.100;8.824;2023-05-02T19:43:46;4.07;;;0.35;;
78744;SDS011;68064;53.100;8.824;2023-05-02T19:45:48;3.63;;;0.40;;
78744;SDS011;68064;53.100;8.824;2023-05-02T19:46:49;3.47;;;0.50;;
78744;SDS011;68064;53.100;8.824;2023-05-02T19:47:51;1.60;;;0.25;;
78744;SDS011;68064;53.100;8.824;2023-05-02T19:48:52;2.90;;;0.20;;
78744;SDS011;68064;53.100;8.824;2023-05-02T19:49:53;3.00;;;0.20;;
78744;SDS011;68064;53.100;8.824;2023-05-02T19:50:54;2.60;;;0.10;;
78744;SDS011;68064;53.100;8.824;2023-05-02T19:51:55;4.05;;;0.40;;
78744;SDS011;68064;53.100;8.824;2023-05-02T19:52:56;4.25;;;0.20;;
78744;SDS011;68064;53.100;8.824;2023-05-02T19:53:57;2.88;;;0.20;;
78744;SDS011;68064;53.100;8.824;2023-05-02T19:54:58;4.50;;;0.20;;
78744;SDS011;68064;53.100;8.824;2023-05-02T19:55:59;5.97;;;0.60;;
78744;SDS011;68064;53.100;8.824;2023-05-02T19:57:03;3.78;;;0.30;;
78744;SDS011;68064;53.100;8.824;2023-05-02T19:58:04;4.32;;;0.47;;
78744;SDS011;68064;53.100;8.824;2023-05-02T19:59:05;3.28;;;0.20;;
78744;SDS011;68064;53.100;8.824;2023-05-02T20:00:06;4.13;;;0.30;;
78744;SDS011;68064;53.100;8.824;2023-05-02T20:01:08;3.60;;;0.35;;
78744;SDS011;68064;53.100;8.824;2023-05-02T20:02:09;2.08;;;0.20;;
78744;SDS011;68064;53.100;8.824;2023-05-02T20:04:11;3.40;;;0.32;;
78744;SDS011;68064;53.100;8.824;2023-05-02T20:05:12;3.45;;;0.20;;
78744;SDS011;68064;53.100;8.824;2023-05-02T20:06:13;3.58;;;0.30;;
78744;SDS011;68064;53.100;8.824;2023-05-02T20:07:14;4.82;;;0.75;;
78744;SDS011;68064;53.100;8.824;2023-05-02T20:08:15;3.78;;;0.15;;
78744;SDS011;68064;53.100;8.824;2023-05-02T20:09:16;5.60;;;0.28;;
78744;SDS011;68064;53.100;8.824;2023-05-02T20:10:17;3.15;;;0.10;;
78744;SDS011;68064;53.100;8.824;2023-05-02T20:11:19;2.85;;;0.30;;
78744;SDS011;68064;53.100;8.824;2023-05-02T20:12:21;4.07;;;0.20;;
78744;SDS011;68064;53.100;8.824;2023-05-02T20:13:24;3.85;;;0.85;;
78744;SDS011;68064;53.100;8.824;2023-05-02T20:14:26;3.13;;;0.40;;
78744;SDS011;68064;53.100;8.824;2023-05-02T20:15:27;2.63;;;0.20;;
78744;SDS011;68064;53.100;8.824;2023-05-02T20:16:28;2.08;;;0.38;;
78744;SDS011;68064;53.100;8.824;2023-05-02T20:17:29;2.78;;;0.35;;
78744;SDS011;68064;53.100;8.824;2023-05-02T20:18:30;4.43;;;0.40;;
78744;SDS011;68064;53.100;8.824;2023-05-02T20:19:31;2.38;;;0.20;;
78744;SDS011;68064;53.100;8.824;2023-05-02T20:20:32;3.83;;;0.30;;
78744;SDS011;68064;53.100;8.824;2023-05-02T20:21:33;2.97;;;0.45;;
78744;SDS011;68064;53.100;8.824;2023-05-02T20:23:35;4.45;;;0.40;;
78744;SDS011;68064;53.100;8.824;2023-05-02T20:24:36;3.88;;;0.15;;
78744;SDS011;68064;53.100;8.824;2023-05-02T20:26:38;2.95;;;0.15;;
78744;SDS011;68064;53.100;8.824;2023-05-02T20:27:41;4.13;;;0.20;;
78744;SDS011;68064;53.100;8.824;2023-05-02T20:28:42;3.67;;;0.10;;
78744;SDS011;68064;53.100;8.824;2023-05-02T20:29:43;2.00;;;0.17;;
78744;SDS011;68064;53.100;8.824;2023-05-02T20:30:44;4.25;;;0.15;;
78744;SDS011;68064;53.100;8.824;2023-05-02T20:31:45;4.72;;;0.20;;
78744;SDS011;68064;53.100;8.824;2023-05-02T20:32:46;2.97;;;0.25;;
78744;SDS011;68064;53.100;8.824;2023-05-02T20:33:47;3.70;;;0.25;;
78744;SDS011;68064;53.100;8.824;2023-05-02T20:34:48;2.63;;;0.20;;
78744;SDS011;68064;53.100;8.824;2023-05-02T20:35:52;2.35;;;0.13;;
78744;SDS011;68064;53.100;8.824;2023-05-02T20:36:53;3.88;;;0.30;;
78744;SDS011;68064;53.100;8.824;2023-05-02T20:37:54;4.43;;;0.43;;
78744;SDS011;68064;53.100;8.824;2023-05-02T20:38:55;4.45;;;0.50;;
78744;SDS011;68064;53.100;8.824;2023-05-02T20:39:56;5.22;;;0.52;;
78744;SDS011;68064;53.100;8.824;2023-05-02T20:41:58;8.43;;;0.73;;
78744;SDS011;68064;53.100;8.824;2023-05-02T20:43:01;6.70;;;0.70;;
78744;SDS011;68064;53.100;8.824;2023-05-02T20:44:05;7.45;;;1.00;;
78744;SDS011;68064;53.100;8.824;2023-05-02T20:45:06;6.60;;;0.80;;
78744;SDS011;68064;53.100;8.824;2023-05-02T20:46:08;7.43;;;1.00;;
78744;SDS011;68064;53.100;8.824;2023-05-02T20:47:10;6.97;;;0.85;;
78744;SDS011;68064;53.100;8.824;2023-05-02T20:48:15;6.63;;;1.40;;
78744;SDS011;68064;53.100;8.824;2023-05-02T20:49:16;7.68;;;0.90;;
78744;SDS011;68064;53.100;8.824;2023-05-02T20:50:17;6.50;;;0.80;;
78744;SDS011;68064;53.100;8.824;2023-05-02T20:51:19;6.40;;;0.50;;
78744;SDS011;68064;53.100;8.824;2023-05-02T20:52:20;4.68;;;0.45;;
78744;SDS011;68064;53.100;8.824;2023-05-02T20:53:21;5.07;;;0.60;;
78744;SDS011;68064;53.100;8.824;2023-05-02T20:54:22;6.88;;;0.60;;
78744;SDS011;68064;53.100;8.824;2023-05-02T20:55:23;5.78;;;0.50;;
78744;SDS011;68064;53.100;8.824;2023-05-02T20:56:25;4.88;;;0.45;;
78744;SDS011;68064;53.100;8.824;2023-05-02T20:57:26;5.32;;;0.50;;
78744;SDS011;68064;53.100;8.824;2023-05-02T20:58:28;5.07;;;0.50;;
78744;SDS011;68064;53.100;8.824;2023-05-02T20:59:29;4.32;;;0.40;;
78744;SDS011;68064;53.100;8.824;2023-05-02T21:00:30;6.35;;;0.60;;
78744;SDS011;68064;53.100;8.824;2023-05-02T21:01:31;4.10;;;0.40;;
78744;SDS011;68064;53.100;8.824;2023-05-02T21:02:32;6.07;;;0.70;;
78744;SDS011;68064;53.100;8.824;2023-05-02T21:03:33;4.88;;;0.40;;
78744;SDS011;68064;53.100;8.824;2023-05-02T21:04:34;5.18;;;0.30;;
78744;SDS011;68064;53.100;8.824;2023-05-02T21:05:35;6.70;;;0.32;;
78744;SDS011;68064;53.100;8.824;2023-05-02T21:06:36;4.25;;;0.30;;
78744;SDS011;68064;53.100;8.824;2023-05-02T21:07:37;5.82;;;0.50;;
78744;SDS011;68064;53.100;8.824;2023-05-02T21:08:38;3.88;;;0.32;;
78744;SDS011;68064;53.100;8.824;2023-05-02T21:09:40;4.68;;;0.40;;
78744;SDS011;68064;53.100;8.824;2023-05-02T21:10:41;5.93;;;0.45;;
78744;SDS011;68064;53.100;8.824;2023-05-02T21:11:42;6.78;;;0.32;;
78744;SDS011;68064;53.100;8.824;2023-05-02T21:12:43;4.55;;;0.30;;
78744;SDS011;68064;53.100;8.824;2023-05-02T21:13:45;3.38;;;0.20;;
78744;SDS011;68064;53.100;8.824;2023-05-02T21:14:46;5.70;;;0.60;;
78744;SDS011;68064;53.100;8.824;2023-05-02T21:15:47;3.97;;;0.32;;
78744;SDS011;68064;53.100;8.824;2023-05-02T21:16:48;4.07;;;0.30;;
78744;SDS011;68064;53.100;8.824;2023-05-02T21:17:58;4.78;;;0.30;;
78744;SDS011;68064;53.100;8.824;2023-05-02T21:18:59;4.90;;;0.35;;
78744;SDS011;68064;53.100;8.824;2023-05-02T21:20:00;4.20;;;0.22;;
78744;SDS011;68064;53.100;8.824;2023-05-02T21:21:01;5.20;;;0.22;;
78744;SDS011;68064;53.100;8.824;2023-05-02T21:22:02;2.85;;;0.20;;
78744;SDS011;68064;53.100;8.824;2023-05-02T21:23:03;4.05;;;0.20;;
78744;SDS011;68064;53.100;8.824;2023-05-02T21:24:05;3.97;;;0.30;;
78744;SDS011;68064;53.100;8.824;2023-05-02T21:25:07;5.45;;;0.32;;
78744;SDS011;68064;53.100;8.824;2023-05-02T21:26:09;5.25;;;0.25;;
78744;SDS011;68064;53.100;8.824;2023-05-02T21:27:10;3.25;;;0.22;;
78744;SDS011;68064;53.100;8.824;2023-05-02T21:28:11;4.35;;;0.30;;
78744;SDS011;68064;53.100;8.824;2023-05-02T21:29:13;4.30;;;0.43;;
78744;SDS011;68064;53.100;8.824;2023-05-02T21:30:14;4.95;;;0.50;;
78744;SDS011;68064;53.100;8.824;2023-05-02T21:31:15;6.60;;;0.45;;
78744;SDS011;68064;53.100;8.824;2023-05-02T21:32:16;5.47;;;0.50;;
78744;SDS011;68064;53.100;8.824;2023-05-02T21:33:17;4.55;;;0.50;;
78744;SDS011;68064;53.100;8.824;2023-05-02T21:34:18;4.20;;;0.40;;
78744;SDS011;68064;53.100;8.824;2023-05-02T21:35:19;5.45;;;0.50;;
78744;SDS011;68064;53.100;8.824;2023-05-02T21:36:20;5.18;;;0.40;;
78744;SDS011;68064;53.100;8.824;2023-05-02T21:37:21;5.45;;;0.32;;
78744;SDS011;68064;53.100;8.824;2023-05-02T21:38:23;5.03;;;0.63;;
78744;SDS011;68064;53.100;8.824;2023-05-02T21:39:24;5.32;;;0.45;;
78744;SDS011;68064;53.100;8.824;2023-05-02T21:40:26;3.35;;;0.30;;
78744;SDS011;68064;53.100;8.824;2023-05-02T21:41:27;7.20;;;0.60;;
78744;SDS011;68064;53.100;8.824;2023-05-02T21:42:28;6.35;;;0.50;;
78744;SDS011;68064;53.100;8.824;2023-05-02T21:43:29;5.68;;;0.40;;
78744;SDS011;68064;53.100;8.824;2023-05-02T21:44:32;5.63;;;0.40;;
78744;SDS011;68064;53.100;8.824;2023-05-02T21:45:33;6.55;;;0.55;;
78744;SDS011;68064;53.100;8.824;2023-05-02T21:46:34;4.13;;;0.25;;
78744;SDS011;68064;53.100;8.824;2023-05-02T21:47:35;6.43;;;1.25;;
78744;SDS011;68064;53.100;8.824;2023-05-02T21:48:36;6.00;;;0.32;;
78744;SDS011;68064;53.100;8.824;2023-05-02T21:49:38;6.13;;;0.50;;
78744;SDS011;68064;53.100;8.824;2023-05-02T21:50:39;4.90;;;0.40;;
78744;SDS011;68064;53.100;8.824;2023-05-02T21:51:40;7.30;;;0.60;;
78744;SDS011;68064;53.100;8.824;2023-05-02T21:52:41;5.68;;;0.40;;
78744;SDS011;68064;53.100;8.824;2023-05-02T21:53:45;6.40;;;0.50;;
78744;SDS011;68064;53.100;8.824;2023-05-02T21:54:46;5.07;;;0.50;;
78744;SDS011;68064;53.100;8.824;2023-05-02T21:55:47;3.78;;;0.40;;
78744;SDS011;68064;53.100;8.824;2023-05-02T21:56:48;4.90;;;0.57;;
78744;SDS011;68064;53.100;8.824;2023-05-02T21:57:49;7.78;;;0.40;;
78744;SDS011;68064;53.100;8.824;2023-05-02T21:58:50;4.60;;;0.52;;
78744;SDS011;68064;53.100;8.824;2023-05-02T21:59:52;6.95;;;0.60;;
78744;SDS011;68064;53.100;8.824;2023-05-02T22:00:53;4.18;;;0.30;;
78744;SDS011;68064;53.100;8.824;2023-05-02T22:01:54;7.07;;;0.30;;
78744;SDS011;68064;53.100;8.824;2023-05-02T22:02:55;5.60;;;0.30;;
78744;SDS011;68064;53.100;8.824;2023-05-02T22:03:56;6.57;;;0.88;;
78744;SDS011;68064;53.100;8.824;2023-05-02T22:04:57;5.32;;;0.40;;
78744;SDS011;68064;53.100;8.824;2023-05-02T22:05:58;3.78;;;0.30;;
78744;SDS011;68064;53.100;8.824;2023-05-02T22:06:59;4.75;;;0.50;;
78744;SDS011;68064;53.100;8.824;2023-05-02T22:08:01;5.18;;;0.60;;
78744;SDS011;68064;53.100;8.824;2023-05-02T22:09:02;4.88;;;0.50;;
78744;SDS011;68064;53.100;8.824;2023-05-02T22:10:03;5.38;;;0.30;;
78744;SDS011;68064;53.100;8.824;2023-05-02T22:11:05;5.32;;;0.40;;
78744;SDS011;68064;53.100;8.824;2023-05-02T22:12:07;5.22;;;0.40;;
78744;SDS011;68064;53.100;8.824;2023-05-02T22:13:09;7.03;;;0.38;;
78744;SDS011;68064;53.100;8.824;2023-05-02T22:14:11;5.00;;;0.63;;
78744;SDS011;68064;53.100;8.824;2023-05-02T22:15:14;4.45;;;0.43;;
78744;SDS011;68064;53.100;8.824;2023-05-02T22:16:15;5.63;;;0.43;;
78744;SDS011;68064;53.100;8.824;2023-05-02T22:17:16;6.55;;;0.82;;
78744;SDS011;68064;53.100;8.824;2023-05-02T22:18:17;6.40;;;0.40;;
78744;SDS011;68064;53.100;8.824;2023-05-02T22:19:18;6.65;;;0.70;;
78744;SDS011;68064;53.100;8.824;2023-05-02T22:20:19;4.70;;;0.40;;
78744;SDS011;68064;53.100;8.824;2023-05-02T22:21:20;6.93;;;0.50;;
78744;SDS011;68064;53.100;8.824;2023-05-02T22:22:21;5.43;;;0.35;;
78744;SDS011;68064;53.100;8.824;2023-05-02T22:23:23;7.07;;;0.57;;
78744;SDS011;68064;53.100;8.824;2023-05-02T22:24:24;3.88;;;0.40;;
78744;SDS011;68064;53.100;8.824;2023-05-02T22:25:25;3.30;;;0.40;;
78744;SDS011;68064;53.100;8.824;2023-05-02T22:26:26;5.95;;;0.45;;
78744;SDS011;68064;53.100;8.824;2023-05-02T22:27:27;5.03;;;0.50;;
78744;SDS011;68064;53.100;8.824;2023-05-02T22:28:28;4.07;;;0.28;;
78744;SDS011;68064;53.100;8.824;2023-05-02T22:29:29;6.78;;;0.50;;
78744;SDS011;68064;53.100;8.824;2023-05-02T22:30:31;6.68;;;0.43;;
78744;SDS011;68064;53.100;8.824;2023-05-02T22:31:32;7.40;;;0.50;;
78744;SDS011;68064;53.100;8.824;2023-05-02T22:32:33;5.78;;;0.50;;
78744;SDS011;68064;53.100;8.824;2023-05-02T22:34:35;4.47;;;0.20;;
78744;SDS011;68064;53.100;8.824;2023-05-02T22:35:36;3.80;;;0.30;;
78744;SDS011;68064;53.100;8.824;2023-05-02T22:36:37;4.00;;;0.25;;
78744;SDS011;68064;53.100;8.824;2023-05-02T22:37:38;2.50;;;0.28;;
78744;SDS011;68064;53.100;8.824;2023-05-02T22:38:39;4.38;;;0.30;;
78744;SDS011;68064;53.100;8.824;2023-05-02T22:39:40;4.38;;;0.40;;
78744;SDS011;68064;53.100;8.824;2023-05-02T22:40:41;6.00;;;0.40;;
78744;SDS011;68064;53.100;8.824;2023-05-02T22:41:43;5.03;;;0.50;;
78744;SDS011;68064;53.100;8.824;2023-05-02T22:43:44;3.97;;;0.20;;
78744;SDS011;68064;53.100;8.824;2023-05-02T22:44:47;3.92;;;0.30;;
78744;SDS011;68064;53.100;8.824;2023-05-02T22:45:49;5.18;;;0.40;;
78744;SDS011;68064;53.100;8.824;2023-05-02T22:46:50;5.38;;;1.20;;
78744;SDS011;68064;53.100;8.824;2023-05-02T22:47:51;3.65;;;0.20;;
78744;SDS011;68064;53.100;8.824;2023-05-02T22:48:53;4.65;;;0.40;;
78744;SDS011;68064;53.100;8.824;2023-05-02T22:49:54;3.85;;;0.40;;
78744;SDS011;68064;53.100;8.824;2023-05-02T22:50:55;4.05;;;0.30;;
78744;SDS011;68064;53.100;8.824;2023-05-02T22:51:56;3.08;;;0.40;;
78744;SDS011;68064;53.100;8.824;2023-05-02T22:52:58;5.00;;;0.40;;
78744;SDS011;68064;53.100;8.824;2023-05-02T22:53:59;4.88;;;0.50;;
78744;SDS011;68064;53.100;8.824;2023-05-02T22:55:00;4.25;;;0.25;;
78744;SDS011;68064;53.100;8.824;2023-05-02T22:56:01;4.38;;;0.73;;
78744;SDS011;68064;53.100;8.824;2023-05-02T22:57:02;7.57;;;0.90;;
78744;SDS011;68064;53.100;8.824;2023-05-02T22:58:03;4.63;;;0.40;;
78744;SDS011;68064;53.100;8.824;2023-05-02T22:59:04;5.57;;;0.43;;
78744;SDS011;68064;53.100;8.824;2023-05-02T23:00:05;5.85;;;0.50;;
78744;SDS011;68064;53.100;8.824;2023-05-02T23:01:10;6.72;;;0.43;;
78744;SDS011;68064;53.100;8.824;2023-05-02T23:02:11;6.70;;;1.20;;
78744;SDS011;68064;53.100;8.824;2023-05-02T23:03:12;4.75;;;0.40;;
78744;SDS011;68064;53.100;8.824;2023-05-02T23:04:13;4.30;;;0.38;;
78744;SDS011;68064;53.100;8.824;2023-05-02T23:05:14;4.97;;;0.77;;
78744;SDS011;68064;53.100;8.824;2023-05-02T23:06:15;4.68;;;0.40;;
78744;SDS011;68064;53.100;8.824;2023-05-02T23:07:17;5.43;;;1.13;;
78744;SDS011;68064;53.100;8.824;2023-05-02T23:08:18;6.45;;;0.40;;
78744;SDS011;68064;53.100;8.824;2023-05-02T23:09:19;4.68;;;0.40;;
78744;SDS011;68064;53.100;8.824;2023-05-02T23:10:20;5.00;;;0.55;;
78744;SDS011;68064;53.100;8.824;2023-05-02T23:11:21;4.38;;;0.45;;
78744;SDS011;68064;53.100;8.824;2023-05-02T23:12:22;6.03;;;0.55;;
78744;SDS011;68064;53.100;8.824;2023-05-02T23:13:23;4.25;;;0.20;;
78744;SDS011;68064;53.100;8.824;2023-05-02T23:14:25;3.22;;;0.28;;
78744;SDS011;68064;53.100;8.824;2023-05-02T23:15:26;4.25;;;0.25;;
78744;SDS011;68064;53.100;8.824;2023-05-02T23:16:28;6.55;;;0.68;;
78744;SDS011;68064;53.100;8.824;2023-05-02T23:17:29;3.97;;;0.20;;
78744;SDS011;68064;53.100;8.824;2023-05-02T23:18:30;4.90;;;0.30;;
78744;SDS011;68064;53.100;8.824;2023-05-02T23:19:31;6.65;;;0.50;;
78744;SDS011;68064;53.100;8.824;2023-05-02T23:20:32;3.28;;;0.22;;
78744;SDS011;68064;53.100;8.824;2023-05-02T23:21:33;6.63;;;0.40;;
78744;SDS011;68064;53.100;8.824;2023-05-02T23:22:35;5.43;;;0.40;;
78744;SDS011;68064;53.100;8.824;2023-05-02T23:23:37;4.28;;;0.20;;
78744;SDS011;68064;53.100;8.824;2023-05-02T23:24:38;5.20;;;0.45;;
78744;SDS011;68064;53.100;8.824;2023-05-02T23:25:39;4.13;;;0.20;;
78744;SDS011;68064;53.100;8.824;2023-05-02T23:26:40;3.95;;;0.30;;
78744;SDS011;68064;53.100;8.824;2023-05-02T23:27:41;4.00;;;0.20;;
78744;SDS011;68064;53.100;8.824;2023-05-02T23:28:42;3.30;;;0.20;;
78744;SDS011;68064;53.100;8.824;2023-05-02T23:29:43;5.03;;;0.30;;
78744;SDS011;68064;53.100;8.824;2023-05-02T23:30:44;4.70;;;0.40;;
78744;SDS011;68064;53.100;8.824;2023-05-02T23:32:49;2.25;;;0.20;;
78744;SDS011;68064;53.100;8.824;2023-05-02T23:34:51;5.63;;;0.20;;
78744;SDS011;68064;53.100;8.824;2023-05-02T23:35:52;5.75;;;0.40;;
78744;SDS011;68064;53.100;8.824;2023-05-02T23:36:53;4.30;;;0.30;;
78744;SDS011;68064;53.100;8.824;2023-05-02T23:37:54;3.92;;;0.30;;
78744;SDS011;68064;53.100;8.824;2023-05-02T23:38:55;5.60;;;0.38;;
78744;SDS011;68064;53.100;8.824;2023-05-02T23:39:56;3.60;;;0.40;;
78744;SDS011;68064;53.100;8.824;2023-05-02T23:40:57;6.68;;;0.50;;
78744;SDS011;68064;53.100;8.824;2023-05-02T23:41:58;5.50;;;0.30;;
78744;SDS011;68064;53.100;8.824;2023-05-02T23:42:59;5.50;;;0.35;;
78744;SDS011;68064;53.100;8.824;2023-05-02T23:44:00;4.25;;;0.32;;
78744;SDS011;68064;53.100;8.824;2023-05-02T23:45:02;5.88;;;0.70;;
78744;SDS011;68064;53.100;8.824;2023-05-02T23:46:03;8.82;;;0.65;;
78744;SDS011;68064;53.100;8.824;2023-05-02T23:47:06;6.18;;;0.40;;
78744;SDS011;68064;53.100;8.824;2023-05-02T23:48:07;8.75;;;0.73;;
78744;SDS011;68064;53.100;8.824;2023-05-02T23:49:08;5.03;;;0.45;;
78744;SDS011;68064;53.100;8.824;2023-05-02T23:50:09;4.72;;;0.40;;
78744;SDS011;68064;53.100;8.824;2023-05-02T23:51:10;4.22;;;0.40;;
78744;SDS011;68064;53.100;8.824;2023-05-02T23:52:11;5.57;;;0.40;;
78744;SDS011;68064;53.100;8.824;2023-05-02T23:53:12;5.10;;;0.40;;
78744;SDS011;68064;53.100;8.824;2023-05-02T23:54:13;5.65;;;0.60;;
78744;SDS011;68064;53.100;8.824;2023-05-02T23:55:14;3.97;;;0.40;;
78744;SDS011;68064;53.100;8.824;2023-05-02T23:57:16;3.40;;;0.25;;
78744;SDS011;68064;53.100;8.824;2023-05-02T23:59:18;5.25;;;0.38;;
